createdAt,value
2023-02-03T00:00:49.511Z,15.07
2023-02-03T00:03:17.408Z,12.57
2023-02-03T00:05:46.557Z,12.27
2023-02-03T00:08:17.168Z,13.93
2023-02-03T00:10:45.432Z,12.60
2023-02-03T00:13:13.807Z,13.43
2023-02-03T00:15:41.700Z,11.63
2023-02-03T00:18:09.591Z,13.13
2023-02-03T00:20:37.461Z,13.27
2023-02-03T00:23:06.832Z,13.57
2023-02-03T00:25:36.132Z,12.30
2023-02-03T00:28:04.233Z,13.83
2023-02-03T00:30:32.308Z,15.17
2023-02-03T00:33:01.441Z,11.50
2023-02-03T00:35:29.426Z,9.33
2023-02-03T00:37:58.531Z,12.27
2023-02-03T00:40:29.784Z,11.33
2023-02-03T00:42:58.998Z,15.27
2023-02-03T00:45:27.379Z,11.97
2023-02-03T00:47:55.248Z,9.57
2023-02-03T00:50:23.164Z,10.00
2023-02-03T00:52:51.033Z,15.40
2023-02-03T00:55:18.910Z,10.57
2023-02-03T00:57:46.776Z,8.93
2023-02-03T01:00:17.144Z,7.47
2023-02-03T01:02:45.603Z,12.50
2023-02-03T01:05:14.905Z,10.93
2023-02-03T01:07:43.291Z,8.67
2023-02-03T01:10:12.022Z,10.27
2023-02-03T01:12:39.967Z,11.77
2023-02-03T01:15:08.717Z,11.43
2023-02-03T01:17:38.023Z,9.17
2023-02-03T01:20:06.656Z,10.47
2023-02-03T01:22:34.572Z,8.90
2023-02-03T01:25:02.485Z,6.50
2023-02-03T01:27:30.394Z,7.93
2023-02-03T01:29:58.312Z,5.30
2023-02-03T01:32:27.487Z,8.80
2023-02-03T01:34:56.716Z,7.00
2023-02-03T01:37:24.621Z,10.63
2023-02-03T01:39:52.581Z,6.90
2023-02-03T01:42:21.190Z,10.83
2023-02-03T01:44:51.284Z,5.23
2023-02-03T01:47:26.114Z,7.77
2023-02-03T01:50:00.953Z,9.13
2023-02-03T01:52:30.004Z,8.43
2023-02-03T01:55:01.900Z,7.57
2023-02-03T01:57:34.572Z,8.40
2023-02-03T02:00:03.662Z,8.30
2023-02-03T02:02:42.765Z,6.20
2023-02-03T02:05:18.348Z,7.50
2023-02-03T02:07:47.399Z,9.57
2023-02-03T02:10:15.386Z,8.40
2023-02-03T02:12:43.717Z,5.30
2023-02-03T02:15:11.996Z,7.60
2023-02-03T02:18:02.983Z,8.10
2023-02-03T02:21:05.048Z,6.70
2023-02-03T02:23:58.201Z,10.57
2023-02-03T02:26:50.469Z,7.53
2023-02-03T02:30:03.848Z,8.70
2023-02-03T02:32:49.623Z,8.53
2023-02-03T02:35:25.306Z,5.47
2023-02-03T02:38:00.948Z,6.40
2023-02-03T02:40:36.477Z,8.43
2023-02-03T02:43:11.880Z,9.03
2023-02-03T02:45:47.902Z,5.20
2023-02-03T02:48:23.296Z,7.07
2023-02-03T02:50:54.944Z,6.73
2023-02-03T02:53:25.849Z,9.40
2023-02-03T02:55:57.075Z,7.03
2023-02-03T02:58:27.218Z,5.97
2023-02-03T03:00:56.668Z,7.77
2023-02-03T03:03:26.143Z,7.00
2023-02-03T03:05:56.780Z,6.97
2023-02-03T03:08:35.047Z,6.00
2023-02-03T03:11:03.725Z,6.63
2023-02-03T03:13:35.046Z,9.03
2023-02-03T03:16:07.504Z,8.07
2023-02-03T03:18:43.393Z,5.90
2023-02-03T03:21:14.896Z,7.07
2023-02-03T03:23:45.569Z,8.10
2023-02-03T03:26:15.970Z,6.87
2023-02-03T03:28:48.603Z,6.47
2023-02-03T03:31:18.281Z,6.53
2023-02-03T03:33:48.519Z,4.23
2023-02-03T03:36:24.936Z,6.57
2023-02-03T03:38:58.208Z,4.77
2023-02-03T03:41:33.420Z,6.40
2023-02-03T03:44:06.750Z,5.57
2023-02-03T03:46:40.917Z,8.10
2023-02-03T03:49:13.031Z,5.37
2023-02-03T03:51:44.804Z,5.07
2023-02-03T03:54:16.668Z,6.50
2023-02-03T03:56:50.180Z,5.93
2023-02-03T03:59:21.364Z,4.20
2023-02-03T04:01:50.935Z,9.37
2023-02-03T04:04:21.908Z,6.47
2023-02-03T04:06:49.839Z,4.93
2023-02-03T04:09:17.957Z,7.30
2023-02-03T04:12:05.710Z,5.30
2023-02-03T04:14:35.213Z,6.13
2023-02-03T04:17:03.128Z,6.30
2023-02-03T04:19:32.580Z,7.33
2023-02-03T04:22:00.519Z,7.30
2023-02-03T04:24:28.465Z,8.63
2023-02-03T04:26:56.534Z,6.00
2023-02-03T04:29:24.420Z,10.37
2023-02-03T04:31:52.331Z,6.93
2023-02-03T04:34:20.263Z,7.33
2023-02-03T04:36:49.539Z,7.10
2023-02-03T04:39:17.443Z,7.13
2023-02-03T04:41:45.361Z,6.40
2023-02-03T04:44:13.230Z,8.03
2023-02-03T04:46:41.144Z,7.53
2023-02-03T04:49:11.494Z,6.47
2023-02-03T04:51:39.389Z,5.83
2023-02-03T04:54:08.795Z,10.40
2023-02-03T04:56:36.645Z,12.67
2023-02-03T04:59:04.646Z,7.97
2023-02-03T05:01:32.508Z,7.53
2023-02-03T05:04:00.483Z,7.07
2023-02-03T05:06:30.053Z,8.67
2023-02-03T05:08:57.995Z,5.57
2023-02-03T05:11:27.440Z,9.97
2023-02-03T05:13:56.674Z,9.37
2023-02-03T05:16:24.894Z,7.40
2023-02-03T05:18:53.083Z,6.93
2023-02-03T05:21:21.239Z,4.97
2023-02-03T05:23:49.151Z,8.03
2023-02-03T05:26:17.273Z,6.33
2023-02-03T05:28:46.607Z,7.30
2023-02-03T05:31:14.568Z,6.40
2023-02-03T05:33:42.594Z,6.40
2023-02-03T05:36:11.021Z,6.20
2023-02-03T05:38:39.068Z,8.27
2023-02-03T05:41:24.759Z,6.77
2023-02-03T05:43:55.024Z,5.27
2023-02-03T05:46:22.909Z,4.57
2023-02-03T05:48:50.808Z,7.40
2023-02-03T05:51:18.669Z,5.90
2023-02-03T05:53:46.594Z,4.57
2023-02-03T05:56:14.520Z,4.43
2023-02-03T05:58:42.371Z,6.83
2023-02-03T06:01:11.936Z,5.90
2023-02-03T06:03:40.025Z,8.10
2023-02-03T06:06:08.165Z,6.07
2023-02-03T06:08:36.017Z,5.57
2023-02-03T06:11:03.925Z,4.47
2023-02-03T06:13:31.964Z,5.60
2023-02-03T06:15:59.860Z,5.40
2023-02-03T06:18:29.111Z,5.53
2023-02-03T06:20:57.133Z,5.00
2023-02-03T06:23:25.053Z,5.30
2023-02-03T06:25:53.270Z,6.00
2023-02-03T06:28:21.197Z,4.47
2023-02-03T06:30:52.058Z,9.57
2023-02-03T06:33:20.007Z,5.40
2023-02-03T06:35:49.220Z,5.67
2023-02-03T06:38:17.165Z,7.53
2023-02-03T06:40:47.595Z,6.67
2023-02-03T06:43:15.833Z,4.93
2023-02-03T06:45:46.771Z,6.50
2023-02-03T06:48:15.273Z,5.60
2023-02-03T06:50:43.195Z,6.37
2023-02-03T06:53:12.404Z,7.57
2023-02-03T06:55:40.270Z,4.83
2023-02-03T06:58:08.194Z,4.50
2023-02-03T07:00:36.075Z,7.30
2023-02-03T07:03:04.403Z,4.43
2023-02-03T07:05:32.372Z,3.53
2023-02-03T07:08:00.231Z,4.47
2023-02-03T07:10:29.813Z,5.23
2023-02-03T07:13:03.492Z,6.93
2023-02-03T07:15:31.592Z,4.00
2023-02-03T07:17:59.563Z,8.03
2023-02-03T07:20:29.103Z,5.60
2023-02-03T07:22:58.962Z,4.00
2023-02-03T07:25:29.128Z,4.87
2023-02-03T07:27:57.071Z,2.87
2023-02-03T07:30:25.198Z,4.63
2023-02-03T07:32:54.203Z,4.00
2023-02-03T07:35:22.118Z,3.80
2023-02-03T07:37:50.056Z,3.93
2023-02-03T07:40:18.770Z,6.90
2023-02-03T07:42:50.125Z,5.03
2023-02-03T07:45:19.199Z,5.30
2023-02-03T07:47:47.113Z,7.57
2023-02-03T07:50:15.127Z,7.17
2023-02-03T07:52:43.004Z,6.10
2023-02-03T07:55:11.316Z,5.20
2023-02-03T07:57:43.256Z,3.03
2023-02-03T08:00:14.851Z,5.83
2023-02-03T08:02:43.243Z,6.43
2023-02-03T08:05:11.956Z,6.27
2023-02-03T08:07:40.109Z,4.73
2023-02-03T08:10:09.943Z,5.80
2023-02-03T08:12:37.965Z,5.53
2023-02-03T08:15:06.927Z,5.73
2023-02-03T08:17:36.353Z,6.00
2023-02-03T08:20:04.736Z,3.27
2023-02-03T08:22:32.660Z,4.50
2023-02-03T08:25:00.542Z,6.47
2023-02-03T08:27:28.526Z,5.77
2023-02-03T08:29:56.433Z,5.60
2023-02-03T08:32:24.950Z,4.90
2023-02-03T08:34:54.945Z,5.10
2023-02-03T08:37:24.594Z,3.93
2023-02-03T08:39:52.756Z,3.10
2023-02-03T08:42:21.491Z,6.13
2023-02-03T08:44:49.892Z,5.77
2023-02-03T08:47:18.673Z,4.43
2023-02-03T08:49:46.856Z,5.10
2023-02-03T08:52:18.806Z,5.77
2023-02-03T08:54:47.761Z,9.80
2023-02-03T08:57:16.126Z,4.97
2023-02-03T08:59:45.169Z,5.10
2023-02-03T09:02:17.207Z,6.17
2023-02-03T09:04:45.631Z,5.80
2023-02-03T09:07:14.327Z,4.40
2023-02-03T09:09:43.651Z,3.97
2023-02-03T09:12:13.039Z,5.33
2023-02-03T09:14:41.007Z,6.90
2023-02-03T09:17:09.542Z,7.63
2023-02-03T09:19:37.744Z,6.53
2023-02-03T09:22:05.786Z,6.43
2023-02-03T09:24:34.076Z,6.60
2023-02-03T09:27:03.392Z,5.80
2023-02-03T09:29:31.300Z,5.33
2023-02-03T09:32:00.012Z,9.33
2023-02-03T09:34:28.067Z,5.97
2023-02-03T09:36:56.152Z,6.53
2023-02-03T09:39:24.089Z,6.70
2023-02-03T09:42:10.094Z,8.87
2023-02-03T09:44:44.173Z,5.33
2023-02-03T09:47:15.286Z,8.20
2023-02-03T09:49:48.163Z,8.07
2023-02-03T09:52:20.301Z,7.57
2023-02-03T09:54:55.010Z,7.90
2023-02-03T09:57:26.358Z,4.67
2023-02-03T09:59:56.716Z,7.57
2023-02-03T10:02:47.547Z,6.13
2023-02-03T10:05:23.292Z,7.23
2023-02-03T10:07:59.212Z,8.77
2023-02-03T10:10:37.063Z,9.27
2023-02-03T10:13:18.405Z,4.93
2023-02-03T10:16:10.070Z,5.40
2023-02-03T10:18:42.834Z,5.37
2023-02-03T10:21:17.670Z,14.80
2023-02-03T10:23:47.664Z,10.30
2023-02-03T10:26:19.684Z,5.00
2023-02-03T10:28:54.631Z,8.57
2023-02-03T10:31:24.170Z,5.83
2023-02-03T10:34:01.268Z,6.47
2023-02-03T10:36:41.964Z,8.13
2023-02-03T10:39:19.640Z,7.57
2023-02-03T10:41:47.721Z,9.63
2023-02-03T10:44:17.121Z,6.50
2023-02-03T10:46:46.402Z,7.80
2023-02-03T10:49:16.386Z,10.17
2023-02-03T10:51:50.180Z,3.80
2023-02-03T10:54:30.486Z,6.93
2023-02-03T10:57:05.068Z,8.33
2023-02-03T10:59:36.840Z,6.43
2023-02-03T11:02:10.739Z,9.93
2023-02-03T11:04:38.843Z,6.70
2023-02-03T11:07:22.512Z,5.83
2023-02-03T11:09:50.520Z,8.23
2023-02-03T11:12:20.559Z,7.83
2023-02-03T11:14:51.856Z,6.10
2023-02-03T11:17:23.048Z,6.90
2023-02-03T11:19:52.931Z,9.73
2023-02-03T11:22:33.706Z,7.03
2023-02-03T11:25:05.392Z,10.33
2023-02-03T11:27:34.813Z,15.77
2023-02-03T11:30:15.103Z,7.10
2023-02-03T11:32:44.121Z,5.37
2023-02-03T11:35:18.490Z,5.20
2023-02-03T11:37:48.081Z,7.80
2023-02-03T11:40:28.668Z,7.03
2023-02-03T11:43:17.569Z,7.97
2023-02-03T11:45:51.061Z,6.57
2023-02-03T11:48:30.410Z,7.47
2023-02-03T11:51:04.987Z,5.37
2023-02-03T11:53:56.290Z,5.83
2023-02-03T11:56:37.056Z,6.10
2023-02-03T11:59:35.577Z,6.00
2023-02-03T12:02:37.591Z,5.63
2023-02-03T12:05:27.242Z,6.93
2023-02-03T12:08:08.045Z,7.97
2023-02-03T12:10:47.650Z,8.63
2023-02-03T12:13:46.874Z,17.63
2023-02-03T12:16:31.854Z,9.90
2023-02-03T12:19:12.970Z,17.40
2023-02-03T12:21:50.956Z,11.60
2023-02-03T12:24:31.973Z,9.63
2023-02-03T12:27:13.093Z,9.83
2023-02-03T12:29:44.349Z,9.00
2023-02-03T12:32:21.019Z,7.03
2023-02-03T12:34:55.015Z,7.93
2023-02-03T12:37:28.210Z,10.17
2023-02-03T12:40:01.849Z,6.70
2023-02-03T12:42:36.295Z,7.30
2023-02-03T12:45:12.010Z,7.10
2023-02-03T12:47:47.370Z,10.47
2023-02-03T12:50:21.638Z,11.17
2023-02-03T12:52:54.462Z,9.60
2023-02-03T12:58:21.814Z,13.37
2023-02-03T13:00:56.058Z,13.73
2023-02-03T13:03:29.495Z,33.47
2023-02-03T13:06:05.460Z,20.00
2023-02-03T13:08:37.248Z,14.83
2023-02-03T13:11:16.501Z,8.90
2023-02-03T13:13:50.106Z,14.77
2023-02-03T13:16:22.189Z,9.57
2023-02-03T13:18:55.381Z,8.97
2023-02-03T13:21:24.713Z,9.30
2023-02-03T13:23:52.897Z,9.97
2023-02-03T13:26:51.193Z,7.13
2023-02-03T13:29:35.137Z,10.40
2023-02-03T13:32:15.012Z,7.57
2023-02-03T13:35:08.982Z,12.27
2023-02-03T13:38:04.786Z,9.77
2023-02-03T13:40:47.475Z,11.90
2023-02-03T13:43:36.919Z,6.57
2023-02-03T13:46:09.088Z,10.63
2023-02-03T13:48:37.770Z,8.63
2023-02-03T13:51:09.402Z,9.23
2023-02-03T13:53:42.357Z,9.23
2023-02-03T13:56:18.985Z,7.67
2023-02-03T13:59:01.188Z,8.27
2023-02-03T14:01:34.248Z,7.53
2023-02-03T14:04:03.153Z,6.43
2023-02-03T14:07:00.517Z,7.70
2023-02-03T14:09:46.492Z,8.17
2023-02-03T14:12:31.716Z,7.37
2023-02-03T14:15:05.433Z,6.17
2023-02-03T14:18:22.570Z,8.03
2023-02-03T14:20:57.855Z,10.03
2023-02-03T14:23:40.863Z,9.07
2023-02-03T14:26:17.364Z,5.63
2023-02-03T14:28:47.518Z,4.57
2023-02-03T14:31:19.465Z,5.27
2023-02-03T14:34:12.876Z,11.53
2023-02-03T14:36:56.250Z,8.70
2023-02-03T14:40:10.541Z,4.17
2023-02-03T14:43:14.474Z,4.10
2023-02-03T14:46:17.749Z,5.00
2023-02-03T14:48:58.263Z,8.83
2023-02-03T14:51:41.527Z,9.47
2023-02-03T14:54:25.825Z,7.43
2023-02-03T14:57:19.678Z,8.53
2023-02-03T14:59:52.606Z,3.97
2023-02-03T15:02:25.284Z,7.17
2023-02-03T15:04:54.424Z,9.07
2023-02-03T15:07:44.600Z,5.57
2023-02-03T15:10:17.886Z,6.03
2023-02-03T15:12:48.516Z,4.37
2023-02-03T15:15:25.560Z,8.30
2023-02-03T15:17:55.401Z,6.60
2023-02-03T15:20:34.438Z,7.47
2023-02-03T15:23:03.007Z,7.87
2023-02-03T15:25:32.898Z,5.43
2023-02-03T15:28:16.911Z,7.53
2023-02-03T15:30:47.986Z,6.70
2023-02-03T15:33:20.917Z,7.60
2023-02-03T15:35:51.273Z,6.90
2023-02-03T15:38:24.911Z,7.03
2023-02-03T15:40:57.785Z,6.07
2023-02-03T15:43:32.311Z,5.10
2023-02-03T15:46:07.583Z,5.33
2023-02-03T15:48:42.047Z,6.90
2023-02-03T15:51:16.845Z,8.87
2023-02-03T15:53:53.636Z,5.43
2023-02-03T15:56:30.443Z,6.67
2023-02-03T15:58:59.442Z,6.33
2023-02-03T16:01:29.123Z,6.37
2023-02-03T16:03:58.541Z,4.90
2023-02-03T16:06:30.435Z,6.07
2023-02-03T16:08:59.541Z,4.50
2023-02-03T16:11:33.358Z,5.20
2023-02-03T16:14:03.309Z,6.27
2023-02-03T16:16:37.517Z,5.87
2023-02-03T16:19:07.527Z,6.47
2023-02-03T16:21:38.045Z,6.50
2023-02-03T16:24:07.240Z,7.43
2023-02-03T16:26:38.377Z,5.57
2023-02-03T16:29:33.081Z,6.57
2023-02-03T16:32:19.765Z,5.83
2023-02-03T16:35:06.185Z,7.50
2023-02-03T16:38:01.563Z,5.40
2023-02-03T16:40:47.238Z,9.13
2023-02-03T16:43:35.082Z,7.00
2023-02-03T16:46:20.906Z,8.07
2023-02-03T16:49:07.981Z,5.83
2023-02-03T16:51:40.274Z,5.10
2023-02-03T16:54:10.807Z,4.20
2023-02-03T16:56:38.729Z,6.73
2023-02-03T16:59:06.620Z,5.07
2023-02-03T17:01:34.569Z,6.30
2023-02-03T17:04:03.992Z,8.10
2023-02-03T17:06:32.792Z,5.33
2023-02-03T17:09:00.695Z,8.03
2023-02-03T17:11:28.617Z,4.87
2023-02-03T17:13:57.760Z,8.73
2023-02-03T17:16:27.846Z,9.33
2023-02-03T17:18:55.871Z,8.20
2023-02-03T17:21:26.807Z,7.37
2023-02-03T17:23:54.894Z,7.23
2023-02-03T17:26:22.803Z,7.77
2023-02-03T17:28:50.667Z,8.10
2023-02-03T17:31:20.706Z,7.00
2023-02-03T17:33:52.323Z,8.17
2023-02-03T17:36:21.526Z,8.40
2023-02-03T17:55:31.493Z,10.07
2023-02-03T17:57:59.561Z,9.60
2023-02-03T18:00:28.279Z,6.43
2023-02-03T18:02:57.693Z,6.80
2023-02-03T18:05:25.832Z,8.17
2023-02-03T18:07:53.738Z,7.40
2023-02-03T18:10:21.827Z,6.27
2023-02-03T18:12:51.178Z,7.63
2023-02-03T18:15:19.206Z,8.17
2023-02-03T18:17:47.148Z,8.83
2023-02-03T18:20:15.055Z,9.00
2023-02-03T18:22:44.865Z,9.07
2023-02-03T18:25:16.741Z,9.87
2023-02-03T18:27:44.697Z,7.40
2023-02-03T18:30:17.555Z,9.63
2023-02-03T18:32:47.045Z,9.07
2023-02-03T18:35:17.072Z,10.23
2023-02-03T18:37:45.168Z,10.97
2023-02-03T18:40:13.661Z,9.23
2023-02-03T18:42:41.596Z,11.53
2023-02-03T18:45:10.460Z,14.77
2023-02-03T18:47:40.174Z,10.93
2023-02-03T18:50:08.300Z,13.43
2023-02-03T18:52:36.234Z,10.77
2023-02-03T18:55:04.151Z,9.83
2023-02-03T18:57:32.092Z,11.90
2023-02-03T19:00:00.124Z,10.47
2023-02-03T19:02:28.137Z,13.07
2023-02-03T19:04:57.405Z,11.43
2023-02-03T19:07:25.418Z,11.97
2023-02-03T19:09:53.398Z,13.57
2023-02-03T19:12:21.321Z,11.87
2023-02-03T19:14:49.287Z,12.10
2023-02-03T19:17:17.465Z,12.70
2023-02-03T19:19:45.779Z,12.63
2023-02-03T19:22:15.212Z,14.63
2023-02-03T19:24:43.180Z,15.20
2023-02-03T19:27:11.741Z,14.60
2023-02-03T19:29:40.071Z,11.90
2023-02-03T19:32:09.656Z,15.00
2023-02-03T19:34:37.668Z,16.27
2023-02-03T19:37:06.287Z,15.20
2023-02-03T19:39:35.696Z,14.57
2023-02-03T19:42:03.624Z,13.63
2023-02-03T19:44:31.561Z,15.57
2023-02-03T19:46:59.453Z,17.40
2023-02-03T19:49:28.644Z,14.60
2023-02-03T19:51:56.570Z,15.53
2023-02-03T19:54:24.574Z,13.53
2023-02-03T19:56:53.775Z,18.67
2023-02-03T19:59:21.710Z,17.50
2023-02-03T20:01:49.929Z,17.70
2023-02-03T20:04:17.891Z,19.77
2023-02-03T20:06:45.916Z,18.83
2023-02-03T20:09:13.767Z,20.03
2023-02-03T20:11:41.648Z,19.87
2023-02-03T20:14:11.146Z,22.67
2023-02-03T20:16:39.105Z,15.50
2023-02-03T20:19:07.092Z,17.47
2023-02-03T20:21:35.044Z,16.00
2023-02-03T20:24:02.946Z,23.07
2023-02-03T20:26:30.901Z,23.63
2023-02-03T20:28:58.772Z,18.87
2023-02-03T20:31:28.213Z,17.07
2023-02-03T20:33:56.191Z,16.27
2023-02-03T20:36:24.440Z,17.70
2023-02-03T20:38:52.456Z,19.07
2023-02-03T20:41:20.562Z,22.00
2023-02-03T20:43:49.165Z,22.47
2023-02-03T20:46:19.684Z,19.77
2023-02-03T20:48:48.989Z,17.37
2023-02-03T20:51:20.984Z,14.67
2023-02-03T20:53:49.902Z,18.87
2023-02-03T20:56:21.356Z,21.27
2023-02-03T20:58:49.432Z,18.53
2023-02-03T21:01:19.605Z,17.87
2023-02-03T21:04:06.977Z,18.27
2023-02-03T21:06:35.841Z,19.03
2023-02-03T21:09:14.880Z,23.13
2023-02-03T21:11:43.380Z,25.23
2023-02-03T21:14:22.523Z,21.00
2023-02-03T21:16:51.618Z,20.33
2023-02-03T21:19:29.714Z,22.10
2023-02-03T21:21:57.786Z,21.77
2023-02-03T21:24:29.373Z,22.40
2023-02-03T21:26:57.523Z,21.58
2023-02-03T21:29:27.585Z,26.67
2023-02-03T21:31:56.111Z,22.53
2023-02-03T21:34:33.108Z,18.07
2023-02-03T21:37:08.820Z,21.60
2023-02-03T21:39:37.308Z,21.20
2023-02-03T21:42:40.732Z,23.43
2023-02-03T21:45:28.234Z,22.80
2023-02-03T21:47:59.500Z,29.43
2023-02-03T21:50:31.597Z,17.17
2023-02-03T21:53:21.606Z,25.10
2023-02-03T21:55:49.884Z,19.30
2023-02-03T21:58:24.258Z,20.80
2023-02-03T22:00:53.317Z,25.00
2023-02-03T22:03:26.530Z,22.27
2023-02-03T22:06:15.959Z,20.00
2023-02-03T22:08:45.872Z,31.47
2023-02-03T22:11:14.651Z,27.00
2023-02-03T22:13:43.345Z,22.60
2023-02-03T22:16:13.786Z,19.33
2023-02-03T22:18:42.166Z,15.90
2023-02-03T22:21:11.597Z,20.33
2023-02-03T22:23:39.831Z,18.17
2023-02-03T22:26:08.548Z,20.80
2023-02-03T22:28:36.886Z,22.37
2023-02-03T22:31:07.343Z,15.37
2023-02-03T22:33:36.004Z,19.83
2023-02-03T22:36:06.439Z,18.70
2023-02-03T22:38:36.726Z,15.57
2023-02-03T22:41:05.013Z,19.50
2023-02-03T22:43:33.221Z,22.37
2023-02-03T22:46:01.754Z,16.83
2023-02-03T22:48:30.416Z,23.93
2023-02-03T22:50:59.125Z,24.27
2023-02-03T22:53:27.092Z,24.13
2023-02-03T22:55:56.408Z,21.47
2023-02-03T22:58:24.320Z,21.23
2023-02-03T23:00:52.202Z,21.07
2023-02-03T23:03:20.102Z,18.93
2023-02-03T23:05:48.043Z,20.17
2023-02-03T23:08:16.003Z,18.03
2023-02-03T23:10:43.872Z,19.33
2023-02-03T23:13:13.105Z,22.90
2023-02-03T23:15:41.076Z,16.07
2023-02-03T23:18:09.041Z,20.93
2023-02-03T23:20:36.974Z,18.37
2023-02-03T23:23:04.830Z,19.30
2023-02-03T23:25:32.756Z,23.63
2023-02-03T23:28:00.655Z,16.43
2023-02-03T23:30:30.323Z,21.57
2023-02-03T23:32:58.447Z,19.97
2023-02-03T23:35:44.096Z,19.57
2023-02-03T23:38:12.216Z,13.73
2023-02-03T23:40:40.173Z,19.67
2023-02-03T23:43:08.220Z,20.97
2023-02-03T23:45:37.501Z,14.97
2023-02-03T23:48:06.113Z,12.97
2023-02-03T23:50:34.081Z,12.97
2023-02-03T23:53:01.996Z,14.70
2023-02-03T23:55:31.235Z,13.13
2023-02-03T23:57:59.247Z,10.63
